createdAt,value
2019-01-31T00:03:34.198Z,0.04
2019-01-31T00:09:16.287Z,0.10
2019-01-31T00:14:30.121Z,0.03
2019-01-31T00:19:53.956Z,-0.03
2019-01-31T00:25:28.005Z,0.06
2019-01-31T00:31:10.840Z,0.08
2019-01-31T00:37:06.515Z,0.03
2019-01-31T00:42:45.380Z,0.10
2019-01-31T00:48:18.982Z,0.10
2019-01-31T00:54:08.469Z,-0.04
2019-01-31T01:00:13.502Z,-0.24
2019-01-31T01:05:47.682Z,-0.42
2019-01-31T01:11:27.095Z,-0.58
2019-01-31T01:16:38.948Z,-0.60
2019-01-31T01:22:01.290Z,-0.54
2019-01-31T01:27:21.757Z,-0.51
2019-01-31T01:33:02.299Z,-0.44
2019-01-31T01:38:42.881Z,-0.48
2019-01-31T01:44:24.820Z,-0.67
2019-01-31T01:49:38.882Z,-0.82
2019-01-31T01:54:51.497Z,-0.93
2019-01-31T02:00:10.381Z,-1.01
2019-01-31T02:05:36.604Z,-1.07
2019-01-31T02:11:13.552Z,-1.16
2019-01-31T02:16:46.008Z,-1.23
2019-01-31T02:22:22.301Z,-1.04
2019-01-31T02:28:17.894Z,-0.94
2019-01-31T02:33:57.389Z,-0.84
2019-01-31T02:39:28.975Z,-0.72
2019-01-31T02:44:48.345Z,-0.79
2019-01-31T02:50:17.040Z,-0.90
2019-01-31T02:56:00.260Z,-0.97
2019-01-31T03:01:47.170Z,-1.05
2019-01-31T03:07:22.827Z,-1.12
2019-01-31T03:12:40.282Z,-1.26
2019-01-31T03:17:59.685Z,-1.36
2019-01-31T03:23:30.735Z,-1.44
2019-01-31T03:29:08.962Z,-1.52
2019-01-31T03:34:50.912Z,-1.58
2019-01-31T03:40:18.982Z,-1.67
2019-01-31T03:45:59.553Z,-1.72
2019-01-31T03:51:44.877Z,-1.76
2019-01-31T03:57:30.444Z,-1.81
2019-01-31T04:02:47.566Z,-1.87
2019-01-31T04:07:49.208Z,-1.95
2019-01-31T04:12:50.899Z,-1.97
2019-01-31T04:17:52.424Z,-2.01
2019-01-31T04:22:54.345Z,-2.05
2019-01-31T04:27:55.932Z,-2.09
2019-01-31T04:32:57.936Z,-2.14
2019-01-31T04:37:59.848Z,-2.17
2019-01-31T04:43:01.412Z,-2.18
2019-01-31T04:48:02.922Z,-2.19
2019-01-31T04:53:04.823Z,-2.22
2019-01-31T04:58:06.469Z,-2.25
2019-01-31T05:03:07.987Z,-2.28
2019-01-31T05:08:09.594Z,-2.32
2019-01-31T05:13:11.177Z,-2.34
2019-01-31T05:18:12.733Z,-2.34
2019-01-31T05:23:14.297Z,-2.36
2019-01-31T05:28:16.235Z,-2.39
2019-01-31T05:33:17.901Z,-2.39
2019-01-31T05:38:19.765Z,-2.43
2019-01-31T05:43:21.340Z,-2.41
2019-01-31T05:48:22.888Z,-2.37
2019-01-31T05:53:24.463Z,-2.21
2019-01-31T05:58:26.046Z,-2.03
2019-01-31T06:03:28.672Z,-1.86
2019-01-31T06:08:30.336Z,-1.75
2019-01-31T06:13:32.104Z,-1.66
2019-01-31T06:18:33.641Z,-1.53
2019-01-31T06:23:36.282Z,-1.46
2019-01-31T06:28:37.851Z,-1.42
2019-01-31T06:33:39.529Z,-1.34
2019-01-31T06:38:41.094Z,-1.27
2019-01-31T06:43:42.747Z,-1.25
2019-01-31T06:48:44.282Z,-1.21
2019-01-31T06:53:45.804Z,-1.15
2019-01-31T06:58:47.659Z,-1.14
2019-01-31T07:03:49.284Z,-1.11
2019-01-31T07:08:50.870Z,-1.11
2019-01-31T07:13:52.531Z,-1.13
2019-01-31T07:18:54.511Z,-1.09
2019-01-31T07:23:56.043Z,-1.06
2019-01-31T07:28:57.651Z,-1.06
2019-01-31T07:33:59.297Z,-1.09
2019-01-31T07:39:01.040Z,-1.04
2019-01-31T07:44:03.026Z,-0.98
2019-01-31T07:49:04.599Z,-0.97
2019-01-31T07:54:06.139Z,-0.91
2019-01-31T07:59:07.694Z,-0.89
2019-01-31T08:04:09.348Z,-0.83
2019-01-31T08:09:10.905Z,-0.85
2019-01-31T08:14:12.523Z,-0.81
2019-01-31T08:19:14.063Z,-0.74
2019-01-31T08:24:15.645Z,-0.72
2019-01-31T08:29:17.251Z,-0.77
2019-01-31T08:34:18.813Z,-0.78
2019-01-31T08:39:20.471Z,-0.78
2019-01-31T08:44:22.124Z,-0.76
2019-01-31T08:49:23.988Z,-0.77
2019-01-31T08:54:25.575Z,-0.79
2019-01-31T08:59:27.095Z,-0.78
2019-01-31T09:04:29.035Z,-0.75
2019-01-31T09:09:30.544Z,-0.78
2019-01-31T09:14:32.152Z,-0.75
2019-01-31T09:19:33.700Z,-0.70
2019-01-31T09:25:25.952Z,-0.59
2019-01-31T09:31:01.176Z,-0.56
2019-01-31T09:36:42.014Z,-0.61
2019-01-31T09:41:55.462Z,-0.54
2019-01-31T09:47:33.854Z,-0.55
2019-01-31T09:53:25.311Z,-0.49
2019-01-31T09:58:43.580Z,-0.38
2019-01-31T10:04:07.432Z,-0.25
2019-01-31T10:09:46.825Z,-0.17
2019-01-31T10:15:21.398Z,-0.19
2019-01-31T10:20:36.003Z,-0.13
2019-01-31T10:26:15.454Z,-0.09
2019-01-31T10:31:45.794Z,-0.01
2019-01-31T10:37:37.627Z,0.02
2019-01-31T10:42:52.342Z,0.18
2019-01-31T10:48:26.890Z,0.24
2019-01-31T10:54:00.574Z,0.37
2019-01-31T10:59:14.502Z,0.48
2019-01-31T11:04:37.026Z,0.61
2019-01-31T11:10:23.245Z,0.62
2019-01-31T11:16:15.471Z,0.62
2019-01-31T11:21:54.872Z,0.70
2019-01-31T11:27:31.708Z,0.84
2019-01-31T11:33:14.596Z,0.83
2019-01-31T11:38:52.704Z,0.85
2019-01-31T11:44:38.923Z,0.87
2019-01-31T11:50:12.196Z,0.91
2019-01-31T11:55:41.504Z,0.91
2019-01-31T12:00:43.092Z,0.93
2019-01-31T12:05:44.641Z,1.02
2019-01-31T12:10:46.200Z,1.11
2019-01-31T12:15:48.140Z,1.19
2019-01-31T12:20:49.675Z,1.15
2019-01-31T12:25:51.312Z,1.25
2019-01-31T12:30:53.087Z,1.19
2019-01-31T12:35:54.588Z,1.16
2019-01-31T12:40:56.154Z,1.16
2019-01-31T12:45:57.739Z,1.22
2019-01-31T12:51:00.226Z,1.33
2019-01-31T12:56:01.774Z,1.35
2019-01-31T13:01:03.756Z,1.31
2019-01-31T13:06:05.293Z,1.21
2019-01-31T13:11:06.867Z,1.15
2019-01-31T13:16:08.513Z,1.08
2019-01-31T13:21:10.202Z,1.04
2019-01-31T13:26:11.791Z,0.95
2019-01-31T13:31:14.166Z,0.83
2019-01-31T13:36:15.810Z,0.89
2019-01-31T13:41:17.534Z,0.86
2019-01-31T13:46:19.115Z,0.85
2019-01-31T13:51:21.046Z,0.79
2019-01-31T13:56:23.100Z,0.74
2019-01-31T14:01:24.620Z,0.67
2019-01-31T14:06:26.208Z,0.72
2019-01-31T14:11:27.807Z,0.67
2019-01-31T14:16:29.352Z,0.68
2019-01-31T14:21:30.918Z,0.67
2019-01-31T14:26:32.905Z,0.59
2019-01-31T14:31:34.733Z,0.51
2019-01-31T14:36:36.332Z,0.53
2019-01-31T14:41:37.881Z,0.49
2019-01-31T14:46:39.454Z,0.37
2019-01-31T14:51:40.997Z,0.38
2019-01-31T14:56:42.692Z,0.37
2019-01-31T15:01:44.240Z,0.43
2019-01-31T15:06:45.844Z,0.33
2019-01-31T15:11:47.605Z,0.21
2019-01-31T15:16:49.218Z,0.17
2019-01-31T15:21:50.887Z,-0.03
2019-01-31T15:26:52.502Z,0.00
2019-01-31T15:31:54.142Z,0.05
2019-01-31T15:36:55.787Z,-0.02
2019-01-31T15:41:58.958Z,-0.08
2019-01-31T15:47:00.609Z,-0.11
2019-01-31T15:52:03.404Z,-0.19
2019-01-31T15:57:16.141Z,-0.29
2019-01-31T16:02:08.659Z,-0.31
2019-01-31T16:07:10.392Z,-0.33
2019-01-31T16:12:12.067Z,-0.44
2019-01-31T16:17:14.835Z,-0.48
2019-01-31T16:22:16.797Z,-0.47
2019-01-31T16:27:18.785Z,-0.51
2019-01-31T16:32:20.591Z,-0.61
2019-01-31T16:37:22.377Z,-0.67
2019-01-31T16:42:23.910Z,-0.67
2019-01-31T16:47:26.585Z,-0.51
2019-01-31T16:52:28.530Z,-0.63
2019-01-31T16:57:30.093Z,-0.67
2019-01-31T17:02:31.976Z,-0.71
2019-01-31T17:07:35.767Z,-0.70
2019-01-31T17:12:37.362Z,-0.67
2019-01-31T17:17:39.026Z,-0.65
2019-01-31T17:22:40.558Z,-0.64
2019-01-31T17:27:42.085Z,-0.74
2019-01-31T17:32:46.130Z,-0.81
2019-01-31T17:37:47.851Z,-0.77
2019-01-31T17:42:49.770Z,-0.76
2019-01-31T17:47:51.533Z,-0.87
2019-01-31T17:52:53.174Z,-0.87
2019-01-31T17:57:57.166Z,-0.89
2019-01-31T18:02:59.016Z,-0.89
2019-01-31T18:08:02.602Z,-0.91
2019-01-31T18:13:05.677Z,-0.96
2019-01-31T18:18:08.314Z,-0.99
2019-01-31T18:23:10.007Z,-1.03
2019-01-31T18:28:12.569Z,-1.03
2019-01-31T18:33:15.060Z,-1.02
2019-01-31T18:38:17.519Z,-1.00
2019-01-31T18:43:19.055Z,-1.03
2019-01-31T18:48:20.763Z,-1.04
2019-01-31T18:53:22.818Z,-1.01
2019-01-31T18:58:25.877Z,-0.98
2019-01-31T19:03:28.045Z,-0.93
2019-01-31T19:08:29.627Z,-0.96
2019-01-31T19:13:31.787Z,-0.95
2019-01-31T19:18:35.498Z,-0.90
2019-01-31T19:23:37.073Z,-0.87
2019-01-31T19:28:38.718Z,-0.81
2019-01-31T19:33:40.469Z,-0.78
2019-01-31T19:38:42.374Z,-0.78
2019-01-31T19:43:43.911Z,-0.80
2019-01-31T19:48:45.489Z,-0.90
2019-01-31T19:53:48.459Z,-0.94
2019-01-31T19:58:50.301Z,-0.98
2019-01-31T20:03:52.162Z,-0.93
2019-01-31T20:08:54.144Z,-0.94
2019-01-31T20:13:57.952Z,-0.99
2019-01-31T20:19:00.065Z,-1.16
2019-01-31T20:24:01.782Z,-1.26
2019-01-31T20:29:03.475Z,-1.40
2019-01-31T20:34:05.553Z,-1.53
2019-01-31T20:39:08.134Z,-1.62
2019-01-31T20:44:09.711Z,-1.69
2019-01-31T20:49:11.239Z,-1.64
2019-01-31T20:54:13.250Z,-1.50
2019-01-31T20:59:15.086Z,-1.47
2019-01-31T21:04:16.688Z,-1.58
2019-01-31T21:09:19.282Z,-1.72
2019-01-31T21:14:21.237Z,-1.84
2019-01-31T21:19:22.926Z,-1.90
2019-01-31T21:24:24.752Z,-1.98
2019-01-31T21:29:26.390Z,-2.01
2019-01-31T21:34:28.082Z,-2.01
2019-01-31T21:39:29.659Z,-1.99
2019-01-31T21:44:31.342Z,-1.94
2019-01-31T21:49:32.914Z,-1.89
2019-01-31T21:54:34.472Z,-1.83
2019-01-31T21:59:36.104Z,-1.74
2019-01-31T22:04:37.697Z,-1.65
2019-01-31T22:09:39.298Z,-1.53
2019-01-31T22:14:40.944Z,-1.48
2019-01-31T22:19:42.458Z,-1.45
2019-01-31T22:24:44.333Z,-1.41
2019-01-31T22:29:45.960Z,-1.40
2019-01-31T22:34:47.525Z,-1.39
2019-01-31T22:39:49.121Z,-1.36
2019-01-31T22:44:51.009Z,-1.33
2019-01-31T22:49:52.597Z,-1.33
2019-01-31T22:54:54.184Z,-1.34
2019-01-31T22:59:55.712Z,-1.35
2019-01-31T23:04:57.272Z,-1.35
2019-01-31T23:09:58.930Z,-1.35
2019-01-31T23:15:00.532Z,-1.36
2019-01-31T23:20:02.687Z,-1.29
2019-01-31T23:25:04.407Z,-1.25
2019-01-31T23:30:06.484Z,-1.22
2019-01-31T23:35:08.187Z,-1.24
2019-01-31T23:40:09.775Z,-1.22
2019-01-31T23:45:11.428Z,-1.21
2019-01-31T23:50:13.061Z,-1.21
2019-01-31T23:55:15.300Z,-1.21
